Time;durP1;ratioP1;P1;durP2;ratioP2;P2;SDS_P1;SDS_P2;PMS_P1;PMS_P2;Temp;Humidity;BMP_temperature;BMP_pressure;BME280_temperature;BME280_humidity;BME280_pressure;Samples;Min_cycle;Max_cycle;Signal;HPM_P1;HPM_P2
2023/02/11 00:01:44;;;;;;;0.68;0.57;;;18.00;38.10;;;;;;6131330;23;20186;-80
2023/02/11 00:04:09;;;;;;;1.30;0.63;;;17.90;38.00;;;;;;6156868;23;20202;-80
2023/02/11 00:06:35;;;;;;;1.15;0.65;;;17.90;38.10;;;;;;6156858;23;20471;-80
2023/02/11 00:09:01;;;;;;;1.58;0.50;;;17.90;38.10;;;;;;6156940;23;20139;-80
2023/02/11 00:11:29;;;;;;;1.17;0.50;;;17.90;38.10;;;;;;6157046;23;20148;-80
2023/02/11 00:13:57;;;;;;;1.05;0.40;;;17.90;38.00;;;;;;6131412;23;20139;-80
2023/02/11 00:16:22;;;;;;;0.63;0.40;;;17.90;38.20;;;;;;6131362;23;20132;-81
2023/02/11 00:18:49;;;;;;;0.55;0.40;;;17.90;38.30;;;;;;6156771;23;20190;-80
2023/02/11 00:21:17;;;;;;;0.90;0.50;;;17.90;38.30;;;;;;6131283;23;20135;-80
2023/02/11 00:23:43;;;;;;;0.60;0.50;;;17.90;38.30;;;;;;6130860;23;20147;-80
2023/02/11 00:26:25;;;;;;;1.42;0.50;;;17.90;38.30;;;;;;6130543;23;20503;-80
2023/02/11 00:28:51;;;;;;;0.60;0.40;;;17.90;38.40;;;;;;6130730;23;20552;-80
2023/02/11 00:31:17;;;;;;;0.77;0.50;;;17.90;38.40;;;;;;6106294;23;20144;-80
2023/02/11 00:33:43;;;;;;;0.75;0.40;;;17.90;38.40;;;;;;6156566;23;20144;-80
2023/02/11 00:36:15;;;;;;;0.95;0.50;;;17.90;38.40;;;;;;6156958;23;20146;-81
2023/02/11 00:38:43;;;;;;;0.80;0.40;;;17.90;38.40;;;;;;6130684;23;20144;-79
2023/02/11 00:41:09;;;;;;;0.93;0.52;;;17.90;38.40;;;;;;6082405;23;20159;-80
2023/02/11 00:43:35;;;;;;;0.77;0.50;;;17.80;38.60;;;;;;6157000;23;20143;-80
2023/02/11 00:46:01;;;;;;;1.35;0.50;;;17.80;38.60;;;;;;6156441;23;20225;-80
2023/02/11 00:48:26;;;;;;;0.90;0.50;;;17.80;38.50;;;;;;6130490;23;20132;-80
2023/02/11 00:50:52;;;;;;;0.98;0.50;;;17.80;38.50;;;;;;6156468;23;20143;-80
2023/02/11 00:53:17;;;;;;;0.80;0.30;;;17.80;38.60;;;;;;6156433;23;20448;-80
2023/02/11 00:55:43;;;;;;;0.95;0.50;;;17.80;38.70;;;;;;6130344;23;20162;-80
2023/02/11 00:58:09;;;;;;;0.50;0.30;;;17.80;38.70;;;;;;6156476;23;20210;-80
2023/02/11 01:00:35;;;;;;;0.32;0.32;;;17.80;38.80;;;;;;6156187;23;20151;-80
2023/02/11 01:03:01;;;;;;;0.60;0.40;;;17.80;38.70;;;;;;6131375;23;20195;-80
2023/02/11 01:05:27;;;;;;;0.70;0.50;;;17.70;38.60;;;;;;6130156;23;20164;-80
2023/02/11 01:07:52;;;;;;;0.70;0.50;;;17.80;38.80;;;;;;6130285;23;20132;-80
2023/02/11 01:10:18;;;;;;;0.73;0.50;;;17.80;38.80;;;;;;6156386;23;20136;-81
2023/02/11 01:12:44;;;;;;;0.90;0.60;;;17.80;38.80;;;;;;6130231;23;20138;-80
2023/02/11 01:15:11;;;;;;;0.57;0.32;;;17.80;38.80;;;;;;6130553;23;20150;-81
2023/02/11 01:17:36;;;;;;;0.95;0.52;;;17.80;38.90;;;;;;6130815;23;20140;-80
2023/02/11 01:20:04;;;;;;;0.82;0.40;;;17.80;38.90;;;;;;6156146;23;20143;-80
2023/02/11 01:22:29;;;;;;;0.82;0.45;;;17.80;38.80;;;;;;6130702;23;20223;-80
2023/02/11 01:24:55;;;;;;;0.90;0.65;;;17.80;38.90;;;;;;6156022;23;20187;-80
2023/02/11 01:27:21;;;;;;;0.75;0.50;;;17.80;38.90;;;;;;6156077;23;20137;-80
2023/02/11 01:29:46;;;;;;;0.93;0.50;;;17.80;38.90;;;;;;6156116;23;20183;-80
2023/02/11 01:32:12;;;;;;;1.15;0.57;;;17.80;39.00;;;;;;6156280;23;20568;-80
2023/02/11 01:34:38;;;;;;;1.10;0.68;;;17.80;39.10;;;;;;6156184;23;20515;-80
2023/02/11 01:37:03;;;;;;;0.50;0.40;;;17.80;39.00;;;;;;6156114;23;20139;-80
2023/02/11 01:39:32;;;;;;;0.50;0.50;;;17.70;39.00;;;;;;6155809;23;20539;-80
2023/02/11 01:41:58;;;;;;;4.63;0.60;;;17.70;39.10;;;;;;6105686;23;20242;-80
2023/02/11 01:44:32;;;;;;;0.60;0.43;;;17.80;39.10;;;;;;6129958;23;20190;-80
2023/02/11 01:46:57;;;;;;;1.17;0.60;;;17.80;39.10;;;;;;6131510;23;20132;-80
2023/02/11 01:49:27;;;;;;;0.55;0.40;;;17.80;39.10;;;;;;6105616;23;20132;-80
2023/02/11 01:52:13;;;;;;;0.60;0.40;;;17.80;39.10;;;;;;6130307;23;20140;-80
2023/02/11 01:57:21;;;;;;;0.75;0.68;;;17.80;39.20;;;;;;6156256;23;20140;-80
2023/02/11 02:00:04;;;;;;;1.00;0.60;;;17.80;39.20;;;;;;6155904;23;20186;-80
2023/02/11 02:02:53;;;;;;;0.68;0.68;;;17.80;39.10;;;;;;6106198;23;20139;-80
2023/02/11 02:05:33;;;;;;;0.55;0.40;;;17.80;39.20;;;;;;6156073;23;20170;-80
2023/02/11 02:08:24;;;;;;;0.57;0.50;;;17.70;39.20;;;;;;6156112;23;20147;-80
2023/02/11 02:10:55;;;;;;;0.93;0.50;;;17.70;39.90;;;;;;6134035;23;20144;-80
2023/02/11 02:13:21;;;;;;;1.13;0.50;;;17.80;39.30;;;;;;6130326;23;20136;-80
2023/02/11 02:15:51;;;;;;;0.70;0.45;;;17.70;39.30;;;;;;6130179;23;20442;-80
2023/02/11 02:18:41;;;;;;;0.93;0.52;;;17.70;39.30;;;;;;6156077;23;20230;-80
2023/02/11 02:21:29;;;;;;;0.85;0.50;;;17.70;39.40;;;;;;6156130;23;20150;-80
2023/02/11 02:24:33;;;;;;;0.98;0.55;;;17.70;39.40;;;;;;6129638;23;20159;-80
2023/02/11 02:27:13;;;;;;;0.50;0.40;;;17.70;39.40;;;;;;6138046;23;20174;-80
2023/02/11 02:30:05;;;;;;;0.65;0.40;;;17.70;39.40;;;;;;6131244;23;20205;-80
2023/02/11 02:32:59;;;;;;;0.80;0.50;;;17.70;39.40;;;;;;6155669;23;20567;-80
2023/02/11 02:35:45;;;;;;;0.70;0.43;;;17.70;39.50;;;;;;6134189;23;20166;-80
2023/02/11 02:38:18;;;;;;;1.55;0.43;;;17.80;39.50;;;;;;6129675;23;20218;-80
2023/02/11 02:40:49;;;;;;;0.70;0.38;;;17.70;39.50;;;;;;6155711;23;20662;-80
2023/02/11 02:43:15;;;;;;;1.00;0.57;;;17.70;39.50;;;;;;6129659;23;20140;-80
2023/02/11 02:45:41;;;;;;;0.73;0.50;;;17.70;39.50;;;;;;6155559;23;20171;-80
2023/02/11 02:48:06;;;;;;;0.80;0.50;;;17.70;39.50;;;;;;6129820;23;20463;-80
2023/02/11 02:50:34;;;;;;;0.30;0.30;;;17.70;39.50;;;;;;6105219;23;20159;-80
2023/02/11 02:53:17;;;;;;;0.60;0.47;;;17.70;39.60;;;;;;6105459;23;20140;-80
2023/02/11 02:55:53;;;;;;;0.55;0.50;;;17.70;39.60;;;;;;6105162;23;20234;-80
2023/02/11 02:58:51;;;;;;;0.68;0.43;;;17.70;39.60;;;;;;6105710;23;20487;-80
2023/02/11 03:01:33;;;;;;;0.73;0.43;;;17.70;39.70;;;;;;6133866;23;20139;-80
2023/02/11 03:04:11;;;;;;;0.40;0.40;;;17.70;39.60;;;;;;6155347;23;20159;-80
2023/02/11 03:06:54;;;;;;;1.55;0.47;;;17.70;39.70;;;;;;6155513;23;20215;-79
2023/02/11 03:09:30;;;;;;;0.73;0.50;;;17.70;39.70;;;;;;6131382;23;20190;-80
2023/02/11 03:11:56;;;;;;;1.00;0.40;;;17.70;39.80;;;;;;6155939;23;20559;-80
2023/02/11 03:14:22;;;;;;;0.85;0.60;;;17.70;39.80;;;;;;6129492;23;20144;-80
2023/02/11 03:16:48;;;;;;;0.50;0.50;;;17.70;39.80;;;;;;6129382;23;20190;-80
2023/02/11 03:19:18;;;;;;;0.85;0.40;;;17.70;39.80;;;;;;6105094;23;20186;-80
2023/02/11 03:21:44;;;;;;;0.75;0.40;;;17.70;39.80;;;;;;6104909;23;20203;-80
2023/02/11 03:24:13;;;;;;;0.47;0.38;;;17.70;39.80;;;;;;6156631;23;20175;-80
2023/02/11 03:26:45;;;;;;;0.82;0.40;;;17.70;39.80;;;;;;6131769;23;20132;-80
2023/02/11 03:29:32;;;;;;;0.80;0.40;;;17.70;39.90;;;;;;6131955;23;20132;-80
2023/02/11 03:32:03;;;;;;;0.82;0.55;;;17.70;39.90;;;;;;6110216;23;20151;-80
2023/02/11 03:34:53;;;;;;;0.75;0.40;;;17.70;39.80;;;;;;6131321;23;20139;-80
2023/02/11 03:37:23;;;;;;;0.65;0.43;;;17.70;39.90;;;;;;6157411;23;20188;-80
2023/02/11 03:40:05;;;;;;;1.10;0.63;;;17.60;39.80;;;;;;6131025;23;20226;-80
2023/02/11 03:42:35;;;;;;;0.80;0.50;;;17.70;40.00;;;;;;6157014;23;20146;-80
2023/02/11 03:45:06;;;;;;;0.40;0.40;;;17.70;40.00;;;;;;6131725;23;20250;-80
2023/02/11 03:47:33;;;;;;;0.50;0.40;;;17.70;39.90;;;;;;6130943;23;20143;-81
2023/02/11 03:49:59;;;;;;;0.40;0.40;;;17.60;40.00;;;;;;6156992;23;20147;-79
2023/02/11 03:52:25;;;;;;;0.45;0.38;;;17.60;40.10;;;;;;6106667;23;20486;-80
2023/02/11 03:54:53;;;;;;;0.43;0.30;;;17.70;40.10;;;;;;6131058;23;20470;-80
2023/02/11 03:57:19;;;;;;;0.43;0.43;;;17.60;40.10;;;;;;6106389;23;20674;-80
2023/02/11 04:00:00;;;;;;;0.47;0.40;;;17.60;40.00;;;;;;6156968;23;20135;-80
2023/02/11 04:02:29;;;;;;;0.77;0.40;;;17.60;40.10;;;;;;6130711;23;20151;-80
2023/02/11 04:04:55;;;;;;;0.50;0.40;;;17.60;40.10;;;;;;6131007;23;20176;-80
2023/02/11 04:07:21;;;;;;;0.70;0.50;;;17.60;40.10;;;;;;6156925;23;20214;-80
2023/02/11 04:09:46;;;;;;;0.55;0.40;;;17.60;40.10;;;;;;6156829;23;20139;-80
2023/02/11 04:12:12;;;;;;;1.08;0.60;;;17.70;40.10;;;;;;6156766;23;20131;-80
2023/02/11 04:14:37;;;;;;;0.60;0.40;;;17.70;40.10;;;;;;6130956;23;20475;-80
2023/02/11 04:17:03;;;;;;;0.77;0.55;;;17.70;40.10;;;;;;6130732;23;20146;-80
2023/02/11 04:19:29;;;;;;;0.52;0.43;;;17.70;40.10;;;;;;6131214;23;20467;-80
2023/02/11 04:21:55;;;;;;;0.63;0.45;;;17.70;40.10;;;;;;6130756;23;20139;-80
2023/02/11 04:24:20;;;;;;;0.40;0.40;;;17.70;40.10;;;;;;6131029;23;20199;-80
2023/02/11 04:26:46;;;;;;;1.20;0.50;;;17.70;40.20;;;;;;6156965;23;20223;-80
2023/02/11 04:29:12;;;;;;;0.45;0.40;;;17.60;40.20;;;;;;6130990;23;20448;-80
2023/02/11 04:31:37;;;;;;;0.32;0.32;;;17.60;40.10;;;;;;6130784;23;20576;-80
2023/02/11 04:34:03;;;;;;;0.57;0.50;;;17.60;40.20;;;;;;6130273;23;20155;-80
2023/02/11 04:36:28;;;;;;;0.40;0.40;;;17.70;40.30;;;;;;6130281;23;20162;-80
2023/02/11 04:38:54;;;;;;;0.70;0.40;;;17.70;40.30;;;;;;6130392;23;20579;-80
2023/02/11 04:41:20;;;;;;;0.93;0.50;;;17.60;40.30;;;;;;6130563;23;20523;-80
2023/02/11 04:43:45;;;;;;;0.70;0.40;;;17.60;40.30;;;;;;6156798;23;20140;-80
2023/02/11 04:46:11;;;;;;;0.32;0.30;;;17.60;40.30;;;;;;6156470;23;20582;-80
2023/02/11 04:48:37;;;;;;;0.68;0.60;;;17.60;40.30;;;;;;6156404;23;20559;-80
2023/02/11 04:51:02;;;;;;;0.90;0.60;;;17.60;40.30;;;;;;6156548;23;20614;-80
2023/02/11 04:53:28;;;;;;;0.75;0.60;;;17.60;40.30;;;;;;6156392;23;20146;-80
2023/02/11 04:55:54;;;;;;;0.50;0.50;;;17.60;40.40;;;;;;6156058;23;20140;-80
2023/02/11 04:58:19;;;;;;;1.10;0.32;;;17.60;40.40;;;;;;6106096;23;20547;-80
2023/02/11 05:00:45;;;;;;;0.73;0.50;;;17.60;40.50;;;;;;6130404;23;20471;-80
2023/02/11 05:03:11;;;;;;;0.65;0.40;;;17.60;40.50;;;;;;6130278;23;20140;-80
2023/02/11 05:05:39;;;;;;;0.40;0.40;;;17.60;40.40;;;;;;6130331;23;20195;-80
2023/02/11 05:08:05;;;;;;;0.50;0.30;;;17.60;40.40;;;;;;6156275;23;20473;-80
2023/02/11 05:10:31;;;;;;;0.43;0.35;;;17.60;40.50;;;;;;6131090;23;20219;-80
2023/02/11 05:12:56;;;;;;;1.50;0.60;;;17.60;40.50;;;;;;6156258;23;20511;-80
2023/02/11 05:15:22;;;;;;;0.88;0.57;;;17.60;40.50;;;;;;6130016;23;20140;-80
2023/02/11 05:17:48;;;;;;;0.40;0.40;;;17.60;41.20;;;;;;6156343;23;20210;-80
2023/02/11 05:20:14;;;;;;;0.82;0.52;;;17.60;40.50;;;;;;6129916;23;20642;-80
2023/02/11 05:22:40;;;;;;;0.85;0.40;;;17.60;40.60;;;;;;6130045;23;20194;-81
2023/02/11 05:25:05;;;;;;;0.82;0.60;;;17.60;40.50;;;;;;6130112;23;20249;-80
2023/02/11 05:27:31;;;;;;;0.77;0.32;;;17.60;40.50;;;;;;6130546;23;20575;-80
2023/02/11 05:29:57;;;;;;;1.30;0.50;;;17.60;40.60;;;;;;6156121;23;20209;-80
2023/02/11 05:32:22;;;;;;;0.95;0.40;;;17.60;40.60;;;;;;6105536;23;20613;-80
2023/02/11 05:34:48;;;;;;;1.02;0.45;;;17.60;40.60;;;;;;6155993;23;20519;-80
2023/02/11 05:37:14;;;;;;;0.75;0.40;;;17.60;40.50;;;;;;6155961;23;20516;-80
2023/02/11 05:39:39;;;;;;;1.00;0.57;;;17.60;40.60;;;;;;6155809;23;20191;-80
2023/02/11 05:42:05;;;;;;;0.32;0.30;;;17.60;40.60;;;;;;6129986;23;20159;-80
2023/02/11 05:44:31;;;;;;;0.80;0.50;;;17.60;40.70;;;;;;6129948;23;20625;-80
2023/02/11 05:46:56;;;;;;;0.43;0.30;;;17.60;40.70;;;;;;6155980;23;20132;-80
2023/02/11 05:49:22;;;;;;;0.88;0.50;;;17.60;40.60;;;;;;6155945;23;20519;-80
2023/02/11 05:51:47;;;;;;;1.08;0.50;;;17.60;40.70;;;;;;6155917;23;20474;-80
2023/02/11 05:54:13;;;;;;;0.95;0.50;;;17.60;40.70;;;;;;6155828;23;20216;-80
2023/02/11 05:56:39;;;;;;;0.30;0.30;;;17.60;40.70;;;;;;6156050;23;20135;-80
2023/02/11 05:59:04;;;;;;;0.55;0.30;;;17.60;40.80;;;;;;6155823;23;20157;-80
2023/02/11 06:01:30;;;;;;;0.90;0.40;;;17.60;40.70;;;;;;6129966;23;20523;-80
2023/02/11 06:03:56;;;;;;;1.02;0.40;;;17.60;40.80;;;;;;6130174;23;20460;-80
2023/02/11 06:06:22;;;;;;;0.80;0.50;;;17.60;40.80;;;;;;6129791;23;20198;-80
2023/02/11 06:08:48;;;;;;;0.63;0.40;;;17.60;40.80;;;;;;6106095;23;20143;-80
2023/02/11 06:11:14;;;;;;;0.50;0.50;;;17.60;40.80;;;;;;6155792;23;20468;-80
2023/02/11 06:13:40;;;;;;;0.60;0.47;;;17.60;40.80;;;;;;6105458;23;20651;-81
2023/02/11 06:16:05;;;;;;;0.50;0.32;;;17.60;40.80;;;;;;6155865;23;20163;-80
2023/02/11 06:18:32;;;;;;;0.57;0.40;;;17.60;40.80;;;;;;6156045;23;20594;-80
2023/02/11 06:20:58;;;;;;;1.00;0.50;;;17.60;40.90;;;;;;6155808;23;20187;-80
2023/02/11 06:23:24;;;;;;;0.43;0.30;;;17.60;40.90;;;;;;6155695;23;20471;-80
2023/02/11 06:25:50;;;;;;;0.55;0.50;;;17.50;40.90;;;;;;6129645;23;20167;-80
2023/02/11 06:28:16;;;;;;;1.30;0.40;;;17.60;41.00;;;;;;6129694;23;20162;-80
2023/02/11 06:30:42;;;;;;;0.60;0.38;;;17.50;40.90;;;;;;6129753;23;20415;-80
2023/02/11 06:33:07;;;;;;;0.80;0.50;;;17.60;40.90;;;;;;6155796;23;20136;-80
2023/02/11 06:35:34;;;;;;;0.90;0.50;;;17.60;41.00;;;;;;6129603;23;20577;-80
2023/02/11 06:38:00;;;;;;;0.70;0.43;;;17.60;40.90;;;;;;6155766;23;20606;-80
2023/02/11 06:40:26;;;;;;;0.98;0.50;;;17.60;40.90;;;;;;6129617;23;20191;-80
2023/02/11 06:42:52;;;;;;;0.70;0.50;;;17.60;41.10;;;;;;6155558;23;20136;-80
2023/02/11 06:45:19;;;;;;;0.55;0.40;;;17.60;41.00;;;;;;6129657;23;20255;-80
2023/02/11 06:47:45;;;;;;;0.60;0.40;;;17.60;41.00;;;;;;6130180;23;20128;-80
2023/02/11 06:50:12;;;;;;;0.70;0.40;;;17.60;41.10;;;;;;6155520;23;20143;-79
2023/02/11 06:52:37;;;;;;;0.60;0.40;;;17.60;41.00;;;;;;6155944;23;20548;-80
2023/02/11 06:55:04;;;;;;;0.50;0.50;;;17.60;41.10;;;;;;6155458;23;20143;-80
2023/02/11 06:57:29;;;;;;;0.40;0.40;;;17.60;41.10;;;;;;6129806;23;20475;-80
2023/02/11 06:59:55;;;;;;;0.55;0.43;;;17.50;41.10;;;;;;6157928;23;20579;-80
2023/02/11 07:02:21;;;;;;;1.10;0.30;;;17.50;41.20;;;;;;6131354;23;20140;-80
2023/02/11 07:04:46;;;;;;;0.60;0.40;;;17.50;41.20;;;;;;6131724;23;20167;-80
2023/02/11 07:07:12;;;;;;;0.50;0.30;;;17.50;41.00;;;;;;6131596;23;20583;-80
2023/02/11 07:09:38;;;;;;;0.63;0.40;;;17.60;41.20;;;;;;6157429;23;20195;-80
2023/02/11 07:12:03;;;;;;;0.40;0.40;;;17.50;41.20;;;;;;6131430;23;20646;-80
2023/02/11 07:14:29;;;;;;;0.57;0.43;;;17.50;41.20;;;;;;6082939;23;20216;-80
2023/02/11 07:16:55;;;;;;;0.55;0.40;;;17.60;41.20;;;;;;6131201;23;20132;-80
2023/02/11 07:19:20;;;;;;;0.43;0.30;;;17.60;41.20;;;;;;6106990;23;20144;-80
2023/02/11 07:21:47;;;;;;;0.52;0.40;;;17.50;41.20;;;;;;6131268;23;20140;-80
2023/02/11 07:24:13;;;;;;;0.30;0.30;;;17.50;41.20;;;;;;6131312;23;20568;-79
2023/02/11 07:26:38;;;;;;;0.30;0.30;;;17.50;41.20;;;;;;6106977;23;20132;-80
2023/02/11 07:29:04;;;;;;;1.27;0.50;;;17.50;41.20;;;;;;6157130;23;20136;-80
2023/02/11 07:31:30;;;;;;;0.30;0.30;;;17.60;41.30;;;;;;6131519;23;20139;-80
2023/02/11 07:33:58;;;;;;;1.42;0.47;;;17.60;41.30;;;;;;6157116;23;20214;-80
2023/02/11 07:36:24;;;;;;;0.55;0.32;;;17.60;41.20;;;;;;6131697;23;20590;-80
2023/02/11 07:38:50;;;;;;;0.30;0.30;;;17.50;41.20;;;;;;6106902;23;20242;-80
2023/02/11 07:41:17;;;;;;;0.55;0.50;;;17.60;41.20;;;;;;6106663;23;20191;-80
2023/02/11 07:43:43;;;;;;;0.38;0.38;;;17.50;41.30;;;;;;6131191;23;20143;-80
2023/02/11 07:46:13;;;;;;;0.73;0.45;;;17.50;41.20;;;;;;6157019;23;20599;-80
2023/02/11 07:48:38;;;;;;;0.90;0.40;;;17.50;41.30;;;;;;6107167;23;20135;-80
2023/02/11 07:51:11;;;;;;;0.75;0.50;;;17.50;41.30;;;;;;6131149;23;20128;-80
2023/02/11 07:53:37;;;;;;;0.32;0.32;;;17.60;41.30;;;;;;6131723;23;20170;-80
2023/02/11 07:56:04;;;;;;;0.63;0.40;;;17.50;41.20;;;;;;6157143;23;20131;-81
2023/02/11 07:58:29;;;;;;;0.77;0.40;;;17.50;41.20;;;;;;6106706;23;20140;-81
2023/02/11 08:01:01;;;;;;;1.10;0.50;;;17.60;41.40;;;;;;6156249;23;20147;-81
2023/02/11 08:03:26;;;;;;;0.88;0.55;;;17.60;41.50;;;;;;6130739;23;20135;-81
2023/02/11 08:05:52;;;;;;;1.98;0.50;;;17.60;41.30;;;;;;6130417;23;20174;-81
2023/02/11 08:08:18;;;;;;;1.17;0.50;;;17.60;41.50;;;;;;6130793;23;20448;-81
2023/02/11 08:10:43;;;;;;;3.85;0.43;;;17.60;41.60;;;;;;6106497;23;20548;-81
2023/02/11 08:13:12;;;;;;;2.28;0.50;;;17.70;41.60;;;;;;6154978;23;20132;-81
2023/02/11 08:15:38;;;;;;;14.05;1.05;;;17.70;41.60;;;;;;6155108;23;20210;-81
2023/02/11 08:18:03;;;;;;;19.08;2.08;;;17.80;41.40;;;;;;6155231;23;20602;-81
2023/02/11 08:20:29;;;;;;;19.85;1.85;;;17.70;41.40;;;;;;6155593;23;20515;-81
2023/02/11 08:22:55;;;;;;;14.95;1.70;;;17.80;41.40;;;;;;6129633;23;20178;-81
2023/02/11 08:25:21;;;;;;;12.85;1.50;;;17.70;41.50;;;;;;6155460;23;20164;-81
2023/02/11 08:27:46;;;;;;;16.15;1.63;;;17.70;41.50;;;;;;6155665;23;20155;-81
2023/02/11 08:30:13;;;;;;;11.00;1.60;;;17.70;41.60;;;;;;6130645;23;20579;-81
2023/02/11 08:32:38;;;;;;;6.88;0.90;;;17.70;41.50;;;;;;6156154;23;20132;-81
2023/02/11 08:35:07;;;;;;;7.43;0.93;;;17.80;41.50;;;;;;6129867;23;20151;-81
2023/02/11 08:37:33;;;;;;;7.53;1.00;;;17.90;41.40;;;;;;6130994;23;20138;-81
2023/02/11 08:39:58;;;;;;;5.50;0.80;;;18.00;41.30;;;;;;6130477;23;20199;-82
2023/02/11 08:42:24;;;;;;;5.53;1.05;;;18.00;41.10;;;;;;6156405;23;20175;-81
2023/02/11 08:44:49;;;;;;;9.95;0.90;;;18.10;41.10;;;;;;6157211;23;20677;-80
2023/02/11 08:47:15;;;;;;;5.05;0.82;;;18.00;41.20;;;;;;6158283;23;20142;-81
2023/02/11 08:49:41;;;;;;;4.97;1.02;;;18.10;41.20;;;;;;6158206;23;20227;-82
2023/02/11 08:52:10;;;;;;;4.15;0.80;;;18.10;41.20;;;;;;6157100;23;20139;-81
2023/02/11 08:54:36;;;;;;;5.32;0.73;;;18.20;41.20;;;;;;6057567;23;20257;-81
2023/02/11 08:57:01;;;;;;;4.00;1.08;;;18.20;41.20;;;;;;6081547;23;20230;-81
2023/02/11 08:59:27;;;;;;;3.65;0.70;;;18.20;41.00;;;;;;6155231;23;20163;-81
2023/02/11 09:01:53;;;;;;;8.73;0.82;;;18.20;41.20;;;;;;6129102;23;20555;-81
2023/02/11 09:04:18;;;;;;;4.60;0.70;;;18.20;41.30;;;;;;6154028;23;20136;-81
2023/02/11 09:06:44;;;;;;;5.70;0.80;;;18.20;41.80;;;;;;6129045;23;20139;-80
2023/02/11 09:09:12;;;;;;;5.32;0.60;;;18.30;41.80;;;;;;6155647;23;20525;-81
2023/02/11 09:11:39;;;;;;;3.13;0.70;;;18.30;41.70;;;;;;6105785;23;20402;-80
2023/02/11 09:14:05;;;;;;;5.40;0.98;;;18.40;41.40;;;;;;6081781;23;20195;-80
2023/02/11 09:16:33;;;;;;;6.35;0.90;;;18.40;41.10;;;;;;6082209;23;20227;-80
2023/02/11 09:18:59;;;;;;;3.65;0.70;;;18.40;41.20;;;;;;6105793;23;20164;-81
2023/02/11 09:21:25;;;;;;;4.30;0.60;;;18.40;41.20;;;;;;6129730;23;20136;-79
2023/02/11 09:23:51;;;;;;;5.22;0.73;;;18.40;41.30;;;;;;6081332;23;20151;-79
2023/02/11 09:26:18;;;;;;;5.30;0.70;;;18.40;41.40;;;;;;6129616;23;20211;-79
2023/02/11 09:28:44;;;;;;;9.70;1.13;;;18.40;41.40;;;;;;6156147;23;20207;-80
2023/02/11 09:31:13;;;;;;;4.90;0.68;;;18.40;41.40;;;;;;6130202;23;20368;-80
2023/02/11 09:33:41;;;;;;;5.68;0.80;;;18.40;41.50;;;;;;6131301;23;20559;-80
2023/02/11 09:36:07;;;;;;;3.03;0.50;;;18.40;41.40;;;;;;6157159;23;20139;-79
2023/02/11 09:38:32;;;;;;;2.65;0.60;;;18.50;41.60;;;;;;6154933;23;20666;-80
2023/02/11 09:41:01;;;;;;;4.50;0.80;;;18.50;41.50;;;;;;6155674;23;20201;-79
2023/02/11 09:43:42;;;;;;;2.65;0.63;;;18.50;41.50;;;;;;6156262;23;20159;-79
2023/02/11 09:46:08;;;;;;;3.58;0.60;;;18.50;41.60;;;;;;6156238;23;20613;-80
2023/02/11 09:48:39;;;;;;;7.18;0.90;;;18.50;41.60;;;;;;6156893;23;20135;-79
2023/02/11 09:51:04;;;;;;;6.07;0.93;;;18.60;41.70;;;;;;6105979;23;20147;-80
2023/02/11 09:53:34;;;;;;;4.05;0.90;;;18.60;41.80;;;;;;6155327;23;20136;-80
2023/02/11 09:56:06;;;;;;;3.55;0.80;;;18.60;41.70;;;;;;6129529;23;20155;-80
2023/02/11 09:58:34;;;;;;;7.80;1.10;;;18.60;41.40;;;;;;6156625;23;20135;-79
2023/02/11 10:01:30;;;;;;;13.32;0.80;;;18.60;41.80;;;;;;6128942;23;20195;-80
2023/02/11 10:04:18;;;;;;;12.15;1.15;;;18.60;42.10;;;;;;6155048;23;20483;-81
2023/02/11 10:06:46;;;;;;;6.93;0.82;;;18.70;42.30;;;;;;6020650;23;20164;-81
2023/02/11 10:09:45;;;;;;;7.10;1.08;;;18.70;42.30;;;;;;5995691;23;20224;-81
2023/02/11 10:12:33;;;;;;;9.13;1.27;;;18.60;42.20;;;;;;6049439;23;20141;-80
2023/02/11 10:15:14;;;;;;;5.45;0.90;;;18.60;42.30;;;;;;6042347;23;20149;-79
2023/02/11 10:17:50;;;;;;;6.90;1.20;;;18.60;42.30;;;;;;6066566;23;20145;-79
2023/02/11 10:20:40;;;;;;;11.02;1.02;;;18.60;42.30;;;;;;6066372;23;20152;-79
2023/02/11 10:23:12;;;;;;;6.25;0.80;;;18.60;42.20;;;;;;6065565;23;20152;-80
2023/02/11 10:25:41;;;;;;;6.43;0.68;;;18.60;42.60;;;;;;6041817;23;20207;-80
2023/02/11 10:28:13;;;;;;;6.75;0.90;;;18.60;42.60;;;;;;6042660;23;20153;-79
2023/02/11 10:30:57;;;;;;;6.18;0.77;;;18.60;42.70;;;;;;6066073;23;20149;-80
2023/02/11 10:33:29;;;;;;;6.28;0.50;;;18.60;42.60;;;;;;6043193;23;20148;-80
2023/02/11 10:35:55;;;;;;;6.70;1.00;;;18.60;42.50;;;;;;6044052;23;20173;-80
2023/02/11 10:38:20;;;;;;;3.97;0.70;;;18.60;42.80;;;;;;6114355;23;20165;-80
2023/02/11 10:40:46;;;;;;;9.82;1.02;;;18.60;42.50;;;;;;6157915;23;20569;-81
2023/02/11 10:43:14;;;;;;;4.43;0.77;;;18.60;43.00;;;;;;6132561;23;20166;-78
2023/02/11 10:45:48;;;;;;;6.25;0.60;;;18.60;43.90;;;;;;6158248;23;20174;-79
2023/02/11 10:48:51;;;;;;;1.58;0.60;;;18.60;43.00;;;;;;6131586;23;20137;-79
2023/02/11 10:51:19;;;;;;;6.50;0.90;;;18.60;43.30;;;;;;6157921;23;20139;-79
2023/02/11 10:53:47;;;;;;;3.72;0.90;;;18.60;43.60;;;;;;6157530;23;20635;-80
2023/02/11 10:56:22;;;;;;;3.42;0.60;;;18.60;43.30;;;;;;6129822;23;20131;-79
2023/02/11 10:58:59;;;;;;;4.32;0.70;;;18.60;43.50;;;;;;6156621;23;20139;-79
2023/02/11 11:01:44;;;;;;;3.22;0.82;;;18.60;43.60;;;;;;6157429;23;20198;-79
2023/02/11 11:04:37;;;;;;;8.23;0.75;;;18.60;43.60;;;;;;6156774;23;20544;-79
2023/02/11 11:07:22;;;;;;;6.32;0.88;;;18.60;43.80;;;;;;6156972;23;20136;-79
2023/02/11 11:09:51;;;;;;;8.15;0.80;;;18.50;44.20;;;;;;6131266;23;20157;-79
2023/02/11 11:12:29;;;;;;;6.47;1.17;;;18.60;44.20;;;;;;6106908;23;20135;-80
2023/02/11 11:14:57;;;;;;;6.85;1.30;;;18.60;43.90;;;;;;6157008;23;20135;-79
2023/02/11 11:17:24;;;;;;;5.72;0.70;;;18.60;44.10;;;;;;6131363;23;20152;-80
2023/02/11 11:19:51;;;;;;;3.97;0.70;;;18.60;44.10;;;;;;6158200;23;20143;-79
2023/02/11 11:22:20;;;;;;;6.80;0.77;;;18.60;44.10;;;;;;6132558;23;20142;-81
2023/02/11 11:24:47;;;;;;;5.05;0.82;;;18.60;44.00;;;;;;6112072;23;20171;-80
2023/02/11 11:27:22;;;;;;;10.18;1.27;;;18.60;44.20;;;;;;6164016;23;20186;-81
2023/02/11 11:29:50;;;;;;;3.13;0.57;;;18.60;44.10;;;;;;6136550;23;20190;-80
2023/02/11 11:32:23;;;;;;;7.50;0.80;;;18.70;44.30;;;;;;6172520;23;20132;-80
2023/02/11 11:34:54;;;;;;;6.28;0.73;;;18.60;44.10;;;;;;6118399;23;20199;-80
2023/02/11 11:37:29;;;;;;;7.28;0.75;;;18.70;44.10;;;;;;6143467;23;20159;-79
2023/02/11 11:40:01;;;;;;;5.28;0.90;;;18.70;43.50;;;;;;6139450;23;20189;-80
2023/02/11 11:42:29;;;;;;;9.30;0.90;;;18.70;43.80;;;;;;6158820;23;20217;-80
2023/02/11 11:45:22;;;;;;;3.97;0.68;;;18.70;43.90;;;;;;6132369;23;20502;-79
2023/02/11 11:47:58;;;;;;;8.43;0.80;;;18.70;43.80;;;;;;6159237;23;20558;-81
2023/02/11 11:50:44;;;;;;;5.18;0.55;;;18.70;43.60;;;;;;6158937;23;20210;-79
2023/02/11 11:53:15;;;;;;;9.77;0.80;;;18.70;43.80;;;;;;6111131;23;20143;-80
2023/02/11 11:55:45;;;;;;;5.38;0.90;;;18.70;43.70;;;;;;6081840;23;20155;-81
2023/02/11 11:58:15;;;;;;;11.32;1.20;;;18.70;44.00;;;;;;6130317;23;20618;-79
2023/02/11 12:01:20;;;;;;;10.60;1.15;;;18.70;43.80;;;;;;6156618;23;20150;-81
2023/02/11 12:04:11;;;;;;;6.03;0.95;;;18.70;43.90;;;;;;6155783;23;20139;-80
2023/02/11 12:06:46;;;;;;;3.00;0.77;;;18.70;43.90;;;;;;6110244;23;20179;-79
2023/02/11 12:09:30;;;;;;;10.10;0.95;;;18.70;43.80;;;;;;6130827;23;20135;-81
2023/02/11 12:12:20;;;;;;;13.05;1.40;;;18.70;44.20;;;;;;6132864;23;20143;-79
2023/02/11 12:15:06;;;;;;;15.52;1.20;;;18.70;44.40;;;;;;6133789;23;20174;-79
2023/02/11 12:17:43;;;;;;;14.98;1.00;;;18.70;44.40;;;;;;6131441;23;20162;-80
2023/02/11 12:20:18;;;;;;;7.13;1.00;;;18.80;44.40;;;;;;6130446;23;20582;-79
2023/02/11 12:22:53;;;;;;;9.25;1.05;;;18.80;44.30;;;;;;6106567;23;20162;-80
2023/02/11 12:25:26;;;;;;;7.40;1.00;;;18.80;44.20;;;;;;6156516;23;20166;-79
2023/02/11 12:28:09;;;;;;;15.63;1.08;;;18.80;44.10;;;;;;6108398;23;20139;-80
2023/02/11 12:30:48;;;;;;;5.38;0.80;;;18.70;43.90;;;;;;6156937;23;20132;-79
2023/02/11 12:33:38;;;;;;;7.47;1.10;;;18.70;44.10;;;;;;6131468;23;20135;-80
2023/02/11 12:36:11;;;;;;;8.45;1.00;;;18.70;43.80;;;;;;6132173;23;20244;-80
2023/02/11 12:38:50;;;;;;;11.68;1.23;;;18.70;43.50;;;;;;6131836;23;20139;-80
2023/02/11 12:44:06;;;;;;;10.65;0.80;;;18.70;44.00;;;;;;6155698;23;20210;-79
2023/02/11 12:46:50;;;;;;;6.55;0.95;;;18.70;43.60;;;;;;6128195;23;20217;-79
2023/02/11 12:49:51;;;;;;;5.75;0.70;;;18.70;43.40;;;;;;6130606;23;20483;-79
2023/02/11 12:52:32;;;;;;;8.38;1.00;;;18.70;43.40;;;;;;6112236;23;20665;-79
2023/02/11 12:55:08;;;;;;;13.82;1.05;;;18.70;44.00;;;;;;6131166;23;20144;-79
2023/02/11 12:57:34;;;;;;;13.65;1.17;;;18.70;44.80;;;;;;6130919;23;20239;-80
2023/02/11 13:00:06;;;;;;;3.17;0.70;;;18.70;44.10;;;;;;6130469;23;20143;-79
2023/02/11 13:03:06;;;;;;;11.45;0.88;;;18.70;43.60;;;;;;6082921;23;20155;-80
2023/02/11 13:05:51;;;;;;;6.60;0.70;;;18.70;43.80;;;;;;6156033;23;20828;-81
2023/02/11 13:08:31;;;;;;;7.40;0.93;;;18.70;43.40;;;;;;6131511;23;20127;-80